Terminal Aerodrome Forecast
Issued by NWS

Home | Current Version | Previous Version | Text Only | Print | Product List | Glossary On
Versions: 1 2 3 4 5 6 7 8 9 10 11 12 13 14 15 16 17 18 19 20 21 22 23 24 25 26 27 28 29 30 31 32 33 34 35 36 37 38
000
FTAK31 PAFA 060320 AAB
TAFABT
TAF AMD
PABT 060320Z 0603/0624 14005KT 2SM -SN BR BKN030 OVC040
     FM060800 18004KT 4SM -SN BR BKN015 OVC025
     FM061200 VRB03KT P6SM -SHSN SCT025 BKN050
     FM061600 VRB03KT P6SM FEW025 SCT050 BKN100=

USA.gov is the U.S. government's official web portal to all federal, state and local government web resources and services.